Time;durP1;ratioP1;P1;durP2;ratioP2;P2;SDS_P1;SDS_P2;PMS_P1;PMS_P2;Temp;Humidity;BMP_temperature;BMP_pressure;BME280_temperature;BME280_humidity;BME280_pressure;Samples;Min_cycle;Max_cycle;Signal;HPM_P1;HPM_P2
2021/08/21 00:00:53;;;;;;;2.03;0.95;;;;;;;20.18;50.97;98763.13;6245188;23;20079;-64
2021/08/21 00:03:18;;;;;;;1.35;1.25;;;;;;;20.15;51.14;98763.72;6244539;23;20019;-66
2021/08/21 00:05:44;;;;;;;1.58;1.45;;;;;;;20.13;50.97;98755.69;6245306;23;19992;-65
2021/08/21 00:08:10;;;;;;;0.95;0.90;;;;;;;20.10;51.26;98758.25;6245292;23;20062;-66
2021/08/21 00:10:36;;;;;;;1.25;1.08;;;;;;;20.05;51.45;98752.72;6218666;23;20015;-66
2021/08/21 00:13:01;;;;;;;1.58;1.33;;;;;;;20.01;51.37;98752.50;6244893;23;20011;-67
2021/08/21 00:15:27;;;;;;;1.23;1.13;;;;;;;20.02;51.59;98747.75;6245017;23;20008;-66
2021/08/21 00:17:54;;;;;;;3.35;1.75;;;;;;;20.02;51.57;98743.00;6245190;23;20012;-66
2021/08/21 00:20:21;;;;;;;7.00;3.10;;;;;;;20.04;51.45;98753.88;6245448;23;20104;-65
2021/08/21 00:22:47;;;;;;;3.30;1.48;;;;;;;20.05;51.25;98749.94;6244953;23;20436;-67
2021/08/21 00:25:13;;;;;;;1.55;1.13;;;;;;;20.05;51.66;98745.22;6245033;23;20540;-65
2021/08/21 00:27:41;;;;;;;3.47;2.08;;;;;;;20.03;51.56;98741.06;6244909;23;20031;-66
2021/08/21 00:30:07;;;;;;;3.55;2.20;;;;;;;20.04;51.67;98742.72;6244983;23;20439;-67
2021/08/21 00:32:33;;;;;;;2.22;1.10;;;;;;;20.07;51.55;98742.13;6245069;23;20028;-65
2021/08/21 00:34:59;;;;;;;1.15;1.05;;;;;;;20.08;51.54;98738.19;6244178;23;20015;-63
2021/08/21 00:37:25;;;;;;;1.75;1.38;;;;;;;20.11;51.49;98740.38;6245242;23;20382;-66
2021/08/21 00:39:50;;;;;;;1.90;1.70;;;;;;;20.16;51.20;98737.53;6244897;23;20012;-67
2021/08/21 00:42:17;;;;;;;2.60;1.10;;;;;;;20.22;51.47;98741.91;6244911;23;20329;-64
2021/08/21 00:44:43;;;;;;;4.80;3.50;;;;;;;20.23;51.41;98740.78;6244469;23;20088;-64
2021/08/21 00:47:17;;;;;;;2.53;1.02;;;;;;;20.27;51.36;98729.84;6245014;23;20015;-66
2021/08/21 00:49:48;;;;;;;2.40;1.05;;;;;;;20.33;51.12;98733.38;6244752;23;20349;-66
2021/08/21 00:52:26;;;;;;;1.30;1.20;;;;;;;20.38;51.03;98730.53;6244806;23;20070;-67
2021/08/21 00:54:52;;;;;;;2.70;2.15;;;;;;;20.45;51.12;98730.97;6244250;23;20026;-65
2021/08/21 00:57:19;;;;;;;5.28;1.33;;;;;;;20.52;51.36;98736.16;6217622;23;20008;-66
2021/08/21 00:59:47;;;;;;;1.27;1.13;;;;;;;20.55;51.10;98735.56;6244779;23;20083;-65
2021/08/21 01:02:14;;;;;;;19.02;1.98;;;;;;;20.57;50.93;98734.13;6217612;23;20361;-65
2021/08/21 01:04:46;;;;;;;1.98;1.83;;;;;;;20.61;50.88;98742.72;6244073;23;19996;-65
2021/08/21 01:07:13;;;;;;;3.15;1.48;;;;;;;20.68;51.18;98736.78;6244641;23;20015;-64
2021/08/21 01:09:43;;;;;;;2.22;0.50;;;;;;;20.75;50.98;98735.25;6244456;23;20024;-65
2021/08/21 01:12:13;;;;;;;4.63;1.48;;;;;;;20.86;50.80;98730.34;6244702;23;20012;-65
2021/08/21 01:14:40;;;;;;;2.63;1.35;;;;;;;20.93;50.96;98735.53;6244455;23;20463;-65
2021/08/21 01:17:06;;;;;;;7.35;2.05;;;;;;;21.02;50.84;98738.47;6244907;23;20039;-65
2021/08/21 01:19:37;;;;;;;2.00;1.10;;;;;;;21.08;50.24;98728.84;6244539;23;20008;-65
2021/08/21 01:22:08;;;;;;;2.15;1.35;;;;;;;21.22;50.20;98740.88;6244499;23;20062;-65
2021/08/21 01:24:35;;;;;;;3.80;0.93;;;;;;;21.35;49.84;98737.28;6244107;23;20396;-65
2021/08/21 01:27:01;;;;;;;0.60;0.50;;;;;;;21.53;49.84;98737.53;6244768;23;20008;-66
2021/08/21 01:29:27;;;;;;;1.38;1.17;;;;;;;21.67;49.60;98732.81;6244099;23;20012;-66
2021/08/21 01:31:53;;;;;;;1.88;0.95;;;;;;;21.86;48.84;98729.03;6244560;23;20015;-65
2021/08/21 01:34:19;;;;;;;2.15;0.65;;;;;;;22.03;48.95;98731.22;6243825;23;20012;-66
2021/08/21 01:36:50;;;;;;;1.27;0.68;;;;;;;22.36;48.10;98726.31;6244237;23;20034;-65
2021/08/21 01:39:17;;;;;;;2.28;1.38;;;;;;;23.41;46.31;98726.25;6244441;23;20008;-66
2021/08/21 01:41:43;;;;;;;0.13;0.13;;;;;;;24.80;43.57;98728.53;6244291;23;20000;-65
2021/08/21 01:44:11;;;;;;;1.48;0.80;;;;;;;26.12;41.45;98723.34;6244165;23;20012;-66
2021/08/21 01:46:37;;;;;;;0.40;0.40;;;;;;;27.31;40.21;98729.78;6244239;23;20508;-66
2021/08/21 01:49:07;;;;;;;0.68;0.20;;;;;;;28.32;38.75;98726.34;6244103;23;20016;-67
2021/08/21 01:51:34;;;;;;;1.50;1.20;;;;;;;29.19;37.87;98737.38;6244513;23;20028;-64
2021/08/21 01:54:00;;;;;;;0.60;0.32;;;;;;;29.93;37.03;98742.59;6244096;23;20020;-64
2021/08/21 01:56:26;;;;;;;0.63;0.63;;;;;;;30.55;36.83;98744.84;6243945;23;20062;-64
2021/08/21 01:58:52;;;;;;;2.95;0.75;;;;;;;31.03;36.38;98744.69;6244225;23;20429;-66
2021/08/21 02:01:18;;;;;;;1.45;0.70;;;;;;;31.37;36.13;98742.13;6217487;23;20075;-64
2021/08/21 02:03:46;;;;;;;1.25;0.55;;;;;;;31.70;35.96;98761.41;6243791;23;20012;-66
2021/08/21 02:06:13;;;;;;;3.00;0.50;;;;;;;31.87;36.03;98748.69;6243833;23;20393;-67
2021/08/21 02:08:40;;;;;;;1.60;0.70;;;;;;;32.20;35.69;98755.78;6243942;23;20015;-67
2021/08/21 02:11:06;;;;;;;1.27;0.80;;;;;;;32.47;35.31;98748.03;6244120;23;20433;-66
2021/08/21 02:13:32;;;;;;;0.80;0.80;;;;;;;32.80;35.47;98765.56;6243394;23;20330;-66
2021/08/21 02:15:59;;;;;;;0.20;0.20;;;;;;;33.17;35.08;98748.56;6242611;23;20095;-65
2021/08/21 02:18:24;;;;;;;0.65;0.65;;;;;;;33.57;34.35;98762.44;6242874;23;20012;-66
2021/08/21 02:20:50;;;;;;;0.20;0.20;;;;;;;33.84;34.46;98758.25;6242936;23;20015;-66
2021/08/21 02:23:16;;;;;;;0.52;0.50;;;;;;;34.30;34.05;98759.84;6242856;23;20092;-66
2021/08/21 02:25:42;;;;;;;0.80;0.63;;;;;;;34.78;33.08;98747.56;6243328;23;20018;-64
2021/08/21 02:28:09;;;;;;;0.10;0.10;;;;;;;35.16;33.14;98750.97;6243936;23;20063;-67
2021/08/21 02:30:41;;;;;;;0.40;0.40;;;;;;;35.65;32.18;98745.78;6243874;23;20018;-66
2021/08/21 02:33:07;;;;;;;1.02;0.70;;;;;;;36.16;32.11;98745.81;6243578;23;20174;-67
2021/08/21 02:35:34;;;;;;;1.00;1.00;;;;;;;36.46;31.55;98748.28;6242948;23;20016;-66
2021/08/21 02:38:00;;;;;;;0.75;0.75;;;;;;;36.59;31.45;98746.59;6243988;23;20016;-64
2021/08/21 02:40:26;;;;;;;0.60;0.60;;;;;;;36.82;31.67;98733.88;6243509;23;20463;-65
2021/08/21 02:42:52;;;;;;;0.52;0.52;;;;;;;37.01;31.43;98746.88;6243365;23;20071;-65
2021/08/21 02:45:18;;;;;;;0.65;0.57;;;;;;;37.27;30.92;98741.88;6243309;23;20092;-67
2021/08/21 02:47:44;;;;;;;1.25;0.52;;;;;;;37.23;31.44;98744.72;6243635;23;20289;-67
2021/08/21 02:50:10;;;;;;;0.30;0.30;;;;;;;37.03;31.79;98743.59;6243759;23;20036;-66
2021/08/21 02:52:36;;;;;;;0.40;0.20;;;;;;;37.21;31.49;98747.19;6243658;23;20012;-67
2021/08/21 02:55:03;;;;;;;0.38;0.25;;;;;;;37.71;31.01;98746.09;6243551;23;20016;-68
2021/08/21 02:57:28;;;;;;;0.52;0.52;;;;;;;38.09;30.67;98756.84;6243441;23;20038;-66
2021/08/21 02:59:54;;;;;;;0.52;0.50;;;;;;;38.96;29.20;98763.38;6243716;23;20091;-69
2021/08/21 03:02:20;;;;;;;0.80;0.73;;;;;;;39.58;28.67;98761.34;6243982;23;20008;-66
2021/08/21 03:04:45;;;;;;;0.73;0.73;;;;;;;39.54;28.83;98768.38;6243056;23;20515;-66
2021/08/21 03:07:11;;;;;;;0.43;0.43;;;;;;;39.55;29.09;98765.06;6244218;23;20012;-67
2021/08/21 03:09:37;;;;;;;1.20;0.60;;;;;;;39.85;28.59;98768.34;6244773;23;20019;-66
2021/08/21 03:12:03;;;;;;;1.90;1.10;;;;;;;40.08;28.58;98767.59;6244817;23;20008;-67
2021/08/21 03:14:29;;;;;;;0.55;0.50;;;;;;;40.36;28.33;98780.63;6245130;23;20440;-68
2021/08/21 03:16:54;;;;;;;1.13;0.38;;;;;;;41.09;27.45;98782.97;6244625;23;20008;-67
2021/08/21 03:19:20;;;;;;;0.95;0.65;;;;;;;41.61;26.90;98785.16;6244795;23;20087;-66
2021/08/21 03:21:46;;;;;;;2.53;0.50;;;;;;;42.06;27.04;98791.53;6244744;23;20499;-67
2021/08/21 03:24:11;;;;;;;0.43;0.43;;;;;;;42.46;26.20;98786.38;6244628;23;20090;-65
2021/08/21 03:26:37;;;;;;;0.20;0.20;;;;;;;42.50;26.28;98789.97;6241915;23;20027;-68
2021/08/21 03:29:03;;;;;;;0.10;0.10;;;;;;;42.07;26.88;98793.16;6243228;23;20347;-67
2021/08/21 03:31:29;;;;;;;0.57;0.57;;;;;;;41.99;27.30;98789.63;6218176;23;20340;-67
2021/08/21 03:33:56;;;;;;;0.57;0.57;;;;;;;41.90;27.06;98777.91;6248375;23;20016;-65
2021/08/21 03:36:22;;;;;;;0.20;0.20;;;;;;;41.87;27.49;98781.69;6246232;23;20348;-66
2021/08/21 03:38:48;;;;;;;0.30;0.30;;;;;;;42.04;26.88;98786.22;6244550;23;20008;-66
2021/08/21 03:41:13;;;;;;;0.50;0.50;;;;;;;42.24;26.82;98788.22;6244208;23;20008;-65
2021/08/21 03:43:39;;;;;;;0.95;0.75;;;;;;;42.51;26.43;98782.94;6244547;23;20042;-65
2021/08/21 03:46:05;;;;;;;0.43;0.43;;;;;;;42.95;26.22;98782.59;6244633;23;20046;-65
2021/08/21 03:48:31;;;;;;;0.15;0.15;;;;;;;43.32;25.30;98791.00;6240230;23;20471;-66
2021/08/21 03:50:57;;;;;;;0.30;0.30;;;;;;;43.70;25.13;98787.38;6243860;23;20066;-68
2021/08/21 03:53:22;;;;;;;0.20;0.20;;;;;;;44.05;25.02;98781.72;6242337;23;20054;-69
2021/08/21 03:55:49;;;;;;;0.28;0.20;;;;;;;44.21;25.30;98772.88;6244542;23;20037;-72
2021/08/21 03:58:16;;;;;;;1.02;0.80;;;;;;;44.33;24.79;98767.56;6244378;23;20004;-70
2021/08/21 04:00:42;;;;;;;0.20;0.20;;;;;;;44.51;24.86;98770.66;6244534;23;20445;-69
2021/08/21 04:03:08;;;;;;;0.30;0.30;;;;;;;44.69;24.43;98770.03;6244598;23;20016;-66
2021/08/21 04:05:34;;;;;;;0.32;0.32;;;;;;;44.88;24.68;98775.94;6243912;23;20012;-64
2021/08/21 04:08:00;;;;;;;0.10;0.10;;;;;;;45.30;24.23;98766.94;6244574;23;20016;-65
2021/08/21 04:10:26;;;;;;;1.88;0.55;;;;;;;45.72;23.47;98771.50;6244915;23;20062;-66
2021/08/21 04:12:52;;;;;;;0.47;0.40;;;;;;;46.10;23.57;98758.75;6244420;23;20015;-65
2021/08/21 04:15:18;;;;;;;0.57;0.57;;;;;;;46.44;22.92;98754.00;6244432;23;20015;-67
2021/08/21 04:17:44;;;;;;;0.30;0.30;;;;;;;46.74;22.88;98758.06;6244569;23;20453;-65
2021/08/21 04:20:10;;;;;;;0.73;0.52;;;;;;;47.06;22.39;98752.06;6244511;23;20015;-66
2021/08/21 04:22:37;;;;;;;0.40;0.32;;;;;;;47.55;21.77;98756.81;6244553;23;20012;-65
2021/08/21 04:25:03;;;;;;;0.20;0.20;;;;;;;47.55;22.21;98759.72;6244364;23;20011;-65
2021/08/21 04:27:28;;;;;;;1.55;0.28;;;;;;;47.34;22.28;98761.59;6244609;23;20012;-64
2021/08/21 04:29:54;;;;;;;0.30;0.30;;;;;;;46.51;23.45;98760.31;6244489;23;20012;-65
2021/08/21 04:32:20;;;;;;;1.55;0.45;;;;;;;44.91;25.11;98758.44;6217339;23;20008;-64
2021/08/21 04:34:46;;;;;;;1.00;0.73;;;;;;;42.66;26.96;98771.03;6243808;23;20012;-65
2021/08/21 04:37:12;;;;;;;0.65;0.63;;;;;;;40.71;29.17;98740.97;6245715;23;20476;-65
2021/08/21 04:39:37;;;;;;;0.73;0.30;;;;;;;39.15;30.84;98746.75;6246353;23;20100;-65
2021/08/21 04:42:03;;;;;;;0.82;0.68;;;;;;;38.08;31.67;98746.66;6246072;23;20441;-65
2021/08/21 04:44:29;;;;;;;1.15;0.82;;;;;;;37.78;31.69;98745.25;6246392;23;20091;-64
2021/08/21 04:46:55;;;;;;;1.08;0.30;;;;;;;38.35;30.20;98747.63;6246136;23;20031;-66
2021/08/21 04:49:21;;;;;;;0.40;0.40;;;;;;;38.59;29.67;98752.72;6245642;23;20443;-65
2021/08/21 04:51:46;;;;;;;0.10;0.10;;;;;;;38.23;30.19;98747.34;6245994;23;20020;-65
2021/08/21 04:54:12;;;;;;;0.55;0.55;;;;;;;37.62;30.54;98745.72;6246077;23;20095;-66
2021/08/21 04:56:38;;;;;;;0.20;0.20;;;;;;;37.04;31.07;98743.19;6245990;23;20008;-64
2021/08/21 04:59:03;;;;;;;0.73;0.63;;;;;;;36.37;31.62;98737.25;6246224;23;20445;-66
2021/08/21 05:01:29;;;;;;;1.05;0.95;;;;;;;35.59;31.97;98728.25;6245958;23;20004;-67
2021/08/21 05:04:35;;;;;;;0.28;0.28;;;;;;;34.88;32.57;98720.28;6239332;23;20054;-64
2021/08/21 05:07:41;;;;;;;0.40;0.40;;;;;;;34.35;32.99;98727.31;6216708;23;20094;-62
2021/08/21 05:10:46;;;;;;;0.00;0.00;;;;;;;33.89;33.26;98717.19;6244890;23;20042;-62
2021/08/21 05:17:09;;;;;;;0.10;0.10;;;;;;;33.02;34.01;98715.47;6208173;23;20028;-64
2021/08/21 05:19:41;;;;;;;0.30;0.30;;;;;;;32.65;34.52;98708.50;6213958;23;20047;-64
2021/08/21 05:22:22;;;;;;;1.92;1.05;;;;;;;32.39;34.33;98717.06;6214204;23;20000;-63
2021/08/21 05:24:50;;;;;;;0.50;0.50;;;;;;;32.12;34.60;98709.38;6187390;23;20012;-65
2021/08/21 05:27:17;;;;;;;2.20;0.45;;;;;;;31.92;34.78;98717.16;6222624;23;20012;-64
2021/08/21 05:29:43;;;;;;;0.45;0.38;;;;;;;31.76;34.89;98719.34;6220517;23;20016;-66
2021/08/21 05:32:09;;;;;;;0.52;0.52;;;;;;;31.66;34.89;98729.28;6214119;23;20012;-63
2021/08/21 05:34:35;;;;;;;0.82;0.82;;;;;;;31.66;34.62;98731.31;6213790;23;20035;-64
2021/08/21 05:37:00;;;;;;;0.60;0.45;;;;;;;31.69;34.63;98739.88;6214217;23;20040;-65
2021/08/21 05:39:27;;;;;;;0.40;0.30;;;;;;;31.70;34.76;98735.03;6214212;23;20019;-64
2021/08/21 05:41:52;;;;;;;0.15;0.15;;;;;;;31.60;34.98;98740.13;6214474;23;20016;-70
2021/08/21 05:44:18;;;;;;;0.50;0.50;;;;;;;31.52;34.60;98743.19;6214448;23;20353;-67
2021/08/21 05:46:44;;;;;;;0.30;0.30;;;;;;;31.51;34.68;98735.88;6213702;23;20035;-67
2021/08/21 05:49:10;;;;;;;3.30;0.52;;;;;;;31.56;34.56;98741.28;6214005;23;20019;-68
2021/08/21 05:51:36;;;;;;;1.00;0.52;;;;;;;31.60;34.78;98736.50;6211563;23;20127;-63
2021/08/21 05:54:01;;;;;;;0.30;0.30;;;;;;;31.58;34.80;98748.22;6211769;23;20088;-62
2021/08/21 05:56:27;;;;;;;0.63;0.28;;;;;;;31.42;34.89;98744.66;6211871;23;20087;-63
2021/08/21 05:58:53;;;;;;;1.90;0.60;;;;;;;31.33;35.09;98735.53;6212254;23;20004;-62
2021/08/21 06:01:18;;;;;;;0.25;0.20;;;;;;;31.26;35.13;98739.09;6212450;23;20040;-64
2021/08/21 06:03:44;;;;;;;1.65;0.85;;;;;;;31.13;35.29;98731.94;6211499;23;20008;-63
2021/08/21 06:06:11;;;;;;;0.47;0.47;;;;;;;31.02;35.42;98720.38;6211722;23;20011;-63
2021/08/21 06:08:40;;;;;;;0.20;0.20;;;;;;;30.93;35.86;98724.25;6212136;23;20973;-61
2021/08/21 06:11:07;;;;;;;0.40;0.40;;;;;;;30.86;35.73;98728.91;6212116;23;20035;-63
2021/08/21 06:13:33;;;;;;;0.20;0.20;;;;;;;30.81;35.81;98726.41;6211999;23;20013;-64
2021/08/21 06:15:59;;;;;;;0.20;0.20;;;;;;;30.70;36.05;98720.50;6211575;23;20009;-62
2021/08/21 06:18:25;;;;;;;0.60;0.60;;;;;;;30.62;36.33;98722.34;6212391;23;20629;-63
2021/08/21 06:20:51;;;;;;;2.00;1.02;;;;;;;30.53;36.67;98724.59;6185420;23;20015;-64
2021/08/21 06:23:16;;;;;;;1.55;0.52;;;;;;;30.45;36.39;98719.94;6210394;23;20016;-63
2021/08/21 06:25:42;;;;;;;0.35;0.35;;;;;;;30.34;36.71;98723.31;6183828;23;20012;-64
2021/08/21 06:28:08;;;;;;;0.20;0.20;;;;;;;30.26;36.85;98715.88;6211234;23;20495;-62
2021/08/21 06:30:34;;;;;;;0.43;0.43;;;;;;;30.20;36.89;98718.16;6211783;23;20009;-63
2021/08/21 06:32:59;;;;;;;0.40;0.40;;;;;;;30.15;36.73;98720.47;6212033;23;20066;-63
2021/08/21 06:35:25;;;;;;;0.30;0.30;;;;;;;30.17;36.84;98733.06;6211372;23;20005;-62
2021/08/21 06:37:51;;;;;;;4.50;0.70;;;;;;;30.25;36.69;98728.38;6210128;23;20008;-64
2021/08/21 06:40:17;;;;;;;0.68;0.68;;;;;;;30.34;36.66;98726.16;6210907;23;20524;-63
2021/08/21 06:42:42;;;;;;;1.27;0.47;;;;;;;30.45;36.56;98732.13;6210282;23;20021;-63
2021/08/21 06:45:09;;;;;;;0.22;0.22;;;;;;;30.63;36.27;98729.66;6210369;23;20083;-64
2021/08/21 06:47:34;;;;;;;0.10;0.10;;;;;;;30.75;36.19;98734.38;6209955;23;20055;-63
2021/08/21 06:50:01;;;;;;;0.30;0.30;;;;;;;30.85;36.19;98724.47;6209975;23;20018;-67
2021/08/21 06:52:27;;;;;;;0.40;0.40;;;;;;;30.94;36.41;98733.56;6210578;23;20432;-62
2021/08/21 06:54:52;;;;;;;0.32;0.32;;;;;;;31.05;35.91;98733.78;6210140;23;20031;-64
2021/08/21 06:57:18;;;;;;;0.47;0.30;;;;;;;31.20;35.91;98727.22;6183607;23;20018;-62
2021/08/21 06:59:44;;;;;;;0.10;0.10;;;;;;;31.34;35.67;98720.19;6210084;23;20446;-62
2021/08/21 07:02:10;;;;;;;1.00;0.85;;;;;;;31.56;35.19;98724.25;6210684;23;20015;-62
2021/08/21 07:04:35;;;;;;;1.48;0.22;;;;;;;31.74;35.02;98724.56;6209820;23;20009;-62
2021/08/21 07:07:02;;;;;;;0.10;0.10;;;;;;;31.89;34.61;98725.59;6209447;23;20019;-63
2021/08/21 07:09:28;;;;;;;0.22;0.22;;;;;;;31.98;34.57;98720.50;6210083;23;20013;-64
2021/08/21 07:11:54;;;;;;;0.75;0.75;;;;;;;31.97;34.28;98719.66;6210852;23;20059;-65
2021/08/21 07:14:19;;;;;;;0.35;0.35;;;;;;;31.97;34.46;98716.81;6210976;23;20032;-65
2021/08/21 07:16:45;;;;;;;1.00;0.32;;;;;;;31.98;34.36;98717.66;6210300;23;20515;-63
2021/08/21 07:19:11;;;;;;;0.32;0.32;;;;;;;31.94;34.47;98716.78;6209741;23;20009;-64
2021/08/21 07:21:37;;;;;;;0.10;0.10;;;;;;;31.87;34.71;98716.66;6209777;23;20000;-64
2021/08/21 07:24:02;;;;;;;1.60;0.70;;;;;;;31.77;34.43;98723.78;6211378;23;20062;-64
2021/08/21 07:26:29;;;;;;;0.28;0.28;;;;;;;31.67;34.54;98719.59;6210593;23;20479;-65
2021/08/21 07:28:55;;;;;;;0.17;0.17;;;;;;;31.65;34.45;98724.00;6209646;23;20017;-62
2021/08/21 07:31:20;;;;;;;0.08;0.08;;;;;;;31.68;34.48;98720.41;6210295;23;20019;-63
2021/08/21 07:33:46;;;;;;;0.20;0.20;;;;;;;31.72;34.41;98724.94;6209221;23;20015;-63
2021/08/21 07:36:12;;;;;;;0.35;0.35;;;;;;;31.73;34.22;98720.91;6209717;23;20370;-64
2021/08/21 07:38:38;;;;;;;0.70;0.25;;;;;;;31.75;34.04;98712.81;6210550;23;20013;-64
2021/08/21 07:41:04;;;;;;;0.32;0.30;;;;;;;31.79;34.00;98715.75;6209684;23;20016;-64
2021/08/21 07:43:29;;;;;;;0.20;0.20;;;;;;;31.83;33.78;98713.75;6209161;23;20009;-63
2021/08/21 07:45:55;;;;;;;0.70;0.30;;;;;;;31.87;33.89;98706.13;6210123;23;20100;-66
2021/08/21 07:48:22;;;;;;;0.20;0.20;;;;;;;31.89;33.72;98700.06;6210068;23;20016;-65
2021/08/21 07:50:47;;;;;;;0.20;0.17;;;;;;;31.94;33.54;98705.44;6210150;23;20015;-64
2021/08/21 07:53:13;;;;;;;0.10;0.10;;;;;;;31.94;33.37;98702.59;6209452;23;20025;-64
2021/08/21 07:55:39;;;;;;;0.30;0.30;;;;;;;31.96;33.60;98701.00;6183182;23;20448;-64
2021/08/21 07:58:05;;;;;;;0.43;0.43;;;;;;;32.04;33.41;98699.09;6210383;23;20008;-63
2021/08/21 08:00:32;;;;;;;0.35;0.35;;;;;;;32.12;33.45;98685.84;6209897;23;20005;-64
2021/08/21 08:02:57;;;;;;;0.55;0.55;;;;;;;32.15;33.16;98690.75;6210177;23;20012;-63
2021/08/21 08:05:23;;;;;;;0.77;0.50;;;;;;;32.21;32.99;98696.94;6209182;23;20323;-63
2021/08/21 08:07:49;;;;;;;0.28;0.28;;;;;;;32.24;32.89;98699.00;6209473;23;20012;-61
2021/08/21 08:10:14;;;;;;;0.68;0.43;;;;;;;32.29;32.60;98699.50;6210450;23;20015;-60
2021/08/21 08:12:40;;;;;;;0.30;0.30;;;;;;;32.33;32.47;98698.72;6209120;23;20512;-62
2021/08/21 08:15:07;;;;;;;0.13;0.13;;;;;;;32.35;32.20;98697.16;6185166;23;20016;-63
2021/08/21 08:17:32;;;;;;;0.10;0.10;;;;;;;32.39;32.38;98689.50;6211508;23;20016;-63
2021/08/21 08:19:58;;;;;;;0.38;0.32;;;;;;;32.43;31.88;98690.34;6211383;23;20035;-63
2021/08/21 08:22:25;;;;;;;1.58;0.77;;;;;;;32.45;32.23;98698.47;6211607;23;20008;-62
2021/08/21 08:24:51;;;;;;;0.52;0.20;;;;;;;32.44;31.90;98683.47;6184735;23;20119;-63
2021/08/21 08:27:18;;;;;;;0.70;0.55;;;;;;;32.42;31.92;98688.72;6211803;23;20208;-61
2021/08/21 08:29:44;;;;;;;0.10;0.10;;;;;;;32.45;31.84;98692.78;6211240;23;20132;-66
2021/08/21 08:32:09;;;;;;;0.40;0.40;;;;;;;32.50;31.75;98683.94;6211874;23;20596;-65
2021/08/21 08:34:35;;;;;;;0.50;0.40;;;;;;;32.59;31.66;98681.63;6213061;23;20023;-64
2021/08/21 08:37:01;;;;;;;1.27;0.77;;;;;;;32.69;31.04;98679.34;6215084;23;20008;-63
2021/08/21 08:39:27;;;;;;;0.13;0.13;;;;;;;32.81;30.90;98687.63;6215839;23;20055;-64
2021/08/21 08:41:56;;;;;;;0.50;0.50;;;;;;;32.87;30.88;98677.53;6215735;23;20021;-65
2021/08/21 08:44:24;;;;;;;0.90;0.28;;;;;;;32.93;31.03;98672.31;6215432;23;20012;-65
2021/08/21 08:46:51;;;;;;;0.85;0.63;;;;;;;32.98;30.66;98669.94;6215412;23;20062;-64
2021/08/21 08:49:17;;;;;;;0.50;0.32;;;;;;;33.04;30.54;98673.25;6215419;23;20043;-65
2021/08/21 08:51:43;;;;;;;0.30;0.30;;;;;;;33.08;30.85;98676.13;6215756;23;20111;-66
2021/08/21 08:54:09;;;;;;;0.25;0.25;;;;;;;33.13;30.60;98676.59;6215959;23;20020;-66
2021/08/21 08:56:34;;;;;;;0.47;0.47;;;;;;;33.25;30.53;98671.88;6214496;23;20020;-66
2021/08/21 08:59:01;;;;;;;0.10;0.10;;;;;;;33.43;29.93;98663.50;6215805;23;20012;-65
2021/08/21 09:01:26;;;;;;;0.38;0.38;;;;;;;33.64;29.59;98660.00;6188405;23;20401;-65
2021/08/21 09:04:17;;;;;;;0.10;0.10;;;;;;;33.81;29.25;98656.53;6188178;23;20012;-65
2021/08/21 09:06:42;;;;;;;0.40;0.40;;;;;;;33.95;29.35;98666.38;6215615;23;20008;-65
2021/08/21 09:09:13;;;;;;;0.38;0.38;;;;;;;34.04;29.27;98667.69;6215621;23;20016;-64
2021/08/21 09:11:53;;;;;;;0.43;0.30;;;;;;;34.14;29.01;98668.13;6215844;23;20346;-65
2021/08/21 09:14:22;;;;;;;0.98;0.40;;;;;;;34.21;28.67;98669.00;6215885;23;20013;-65
2021/08/21 09:16:49;;;;;;;0.40;0.20;;;;;;;34.27;28.58;98671.50;6215525;23;20429;-66
2021/08/21 09:19:26;;;;;;;0.28;0.28;;;;;;;34.27;28.95;98665.81;6215838;23;20434;-65
2021/08/21 09:22:23;;;;;;;0.95;0.20;;;;;;;34.17;28.74;98670.19;6216036;23;20091;-64
2021/08/21 09:24:48;;;;;;;0.35;0.20;;;;;;;34.06;29.24;98675.81;6213870;23;20013;-64
2021/08/21 09:27:14;;;;;;;0.50;0.50;;;;;;;33.96;29.00;98682.25;6215488;23;20194;-65
2021/08/21 09:29:40;;;;;;;0.22;0.22;;;;;;;33.86;29.30;98678.13;6215323;23;20016;-66
2021/08/21 09:32:07;;;;;;;0.35;0.35;;;;;;;33.77;29.25;98667.06;6215907;23;20008;-65
2021/08/21 09:34:33;;;;;;;0.55;0.55;;;;;;;33.67;29.26;98673.47;6214976;23;20012;-66
2021/08/21 09:37:00;;;;;;;2.00;0.80;;;;;;;33.59;29.60;98674.63;6215598;23;20016;-66
2021/08/21 09:39:41;;;;;;;0.63;0.20;;;;;;;33.49;29.46;98661.94;6215428;23;20087;-65
2021/08/21 09:42:10;;;;;;;1.52;0.45;;;;;;;33.42;29.47;98667.56;6215459;23;20012;-65
2021/08/21 09:44:43;;;;;;;0.40;0.35;;;;;;;33.37;29.54;98662.22;6215258;23;20018;-66
2021/08/21 09:47:26;;;;;;;0.55;0.55;;;;;;;33.30;29.40;98651.59;6208508;23;20012;-63
2021/08/21 09:50:18;;;;;;;0.20;0.20;;;;;;;33.26;29.87;98659.25;6214027;23;20059;-64
2021/08/21 09:52:47;;;;;;;1.25;0.30;;;;;;;33.22;29.53;98662.09;6214200;23;20719;-61
2021/08/21 09:55:16;;;;;;;2.60;0.47;;;;;;;33.19;29.40;98660.00;6214001;23;20355;-61
2021/08/21 09:57:42;;;;;;;0.98;0.75;;;;;;;33.18;29.44;98662.00;6213451;23;20020;-61
2021/08/21 10:00:09;;;;;;;0.73;0.30;;;;;;;33.19;29.38;98657.16;6214112;23;20017;-62
2021/08/21 10:02:35;;;;;;;4.28;0.57;;;;;;;33.21;29.51;98671.00;6214071;23;20013;-63
2021/08/21 10:05:01;;;;;;;2.15;0.60;;;;;;;33.26;29.30;98667.81;6213059;23;20013;-61
2021/08/21 10:07:35;;;;;;;0.65;0.65;;;;;;;33.26;29.53;98662.94;6214224;23;20442;-64
2021/08/21 10:10:03;;;;;;;0.88;0.40;;;;;;;33.27;29.34;98656.03;6215228;23;20012;-64
2021/08/21 10:12:29;;;;;;;0.03;0.03;;;;;;;33.29;29.33;98659.31;6215164;23;20008;-64
2021/08/21 10:14:56;;;;;;;0.75;0.40;;;;;;;33.30;28.97;98660.13;6188479;23;20009;-64
2021/08/21 10:17:22;;;;;;;0.20;0.20;;;;;;;33.33;29.33;98665.03;6215235;23;20095;-64
2021/08/21 10:19:49;;;;;;;0.35;0.35;;;;;;;33.35;28.96;98654.09;6215115;23;20398;-65
2021/08/21 10:22:16;;;;;;;0.40;0.40;;;;;;;33.38;28.84;98652.47;6215514;23;20008;-65
2021/08/21 10:24:47;;;;;;;0.45;0.45;;;;;;;33.43;28.92;98649.28;6214825;23;20012;-64
2021/08/21 10:28:01;;;;;;;0.40;0.40;;;;;;;33.49;28.71;98656.22;6215264;23;20342;-65
2021/08/21 10:30:49;;;;;;;2.73;0.93;;;;;;;33.53;28.84;98649.34;6185019;23;20009;-65
2021/08/21 10:33:16;;;;;;;0.10;0.10;;;;;;;33.55;28.78;98646.13;6212133;23;20013;-64
2021/08/21 10:35:48;;;;;;;0.65;0.60;;;;;;;33.57;28.96;98648.56;6213450;23;20016;-64
2021/08/21 10:38:29;;;;;;;0.30;0.30;;;;;;;33.60;28.91;98644.94;6213002;23;20012;-65
2021/08/21 10:40:55;;;;;;;0.30;0.30;;;;;;;33.66;28.63;98644.19;6213201;23;20016;-66
2021/08/21 10:43:43;;;;;;;0.17;0.17;;;;;;;33.73;28.41;98639.75;6213410;23;20087;-67
2021/08/21 10:46:08;;;;;;;1.08;0.80;;;;;;;33.75;28.62;98638.19;6213443;23;20008;-65
2021/08/21 10:48:37;;;;;;;0.82;0.47;;;;;;;33.80;28.30;98632.09;6212612;23;20009;-65
2021/08/21 10:51:23;;;;;;;0.32;0.32;;;;;;;33.80;28.16;98629.25;6213341;23;20043;-65
2021/08/21 10:53:51;;;;;;;0.13;0.13;;;;;;;33.84;28.07;98644.34;6212035;23;20016;-65
2021/08/21 10:56:33;;;;;;;0.43;0.43;;;;;;;33.88;28.37;98633.78;6212735;23;20013;-65
2021/08/21 10:58:59;;;;;;;0.30;0.30;;;;;;;33.91;28.20;98646.44;6185979;23;20012;-65
2021/08/21 11:01:25;;;;;;;0.60;0.40;;;;;;;33.95;28.29;98644.44;6213060;23;20013;-64
2021/08/21 11:03:51;;;;;;;0.30;0.30;;;;;;;33.96;28.08;98633.84;6212176;23;20091;-65
2021/08/21 11:06:30;;;;;;;4.78;0.50;;;;;;;34.02;27.93;98630.22;6212809;23;20062;-64
2021/08/21 11:09:01;;;;;;;1.10;0.45;;;;;;;34.06;28.20;98633.09;6212863;23;20016;-64
2021/08/21 11:11:41;;;;;;;0.52;0.50;;;;;;;34.07;28.21;98634.75;6212849;23;20449;-65
2021/08/21 11:14:10;;;;;;;0.30;0.30;;;;;;;34.06;28.20;98624.53;6213711;23;20013;-64
2021/08/21 11:16:57;;;;;;;0.85;0.57;;;;;;;34.02;28.02;98630.22;6214666;23;20015;-65
2021/08/21 11:19:26;;;;;;;0.40;0.40;;;;;;;33.96;28.38;98633.84;6214631;23;20031;-65
2021/08/21 11:22:10;;;;;;;0.17;0.17;;;;;;;33.94;28.27;98619.16;6214949;23;20012;-65
2021/08/21 11:24:38;;;;;;;0.98;0.98;;;;;;;33.87;28.26;98615.06;6213821;23;20015;-66
2021/08/21 11:27:22;;;;;;;0.40;0.35;;;;;;;33.82;28.33;98615.44;6214546;23;20009;-66
2021/08/21 11:30:21;;;;;;;0.22;0.22;;;;;;;33.76;28.45;98614.19;6214382;23;20070;-65
2021/08/21 11:32:55;;;;;;;0.63;0.13;;;;;;;33.74;28.42;98621.50;6213804;23;20016;-65
2021/08/21 11:35:37;;;;;;;0.70;0.32;;;;;;;33.67;28.58;98608.81;6212655;23;20012;-65
2021/08/21 11:38:08;;;;;;;0.40;0.30;;;;;;;33.64;28.30;98608.78;6213038;23;20504;-63
2021/08/21 11:40:39;;;;;;;1.77;1.10;;;;;;;33.59;28.60;98609.16;6211890;23;20015;-65
2021/08/21 11:43:07;;;;;;;1.33;0.40;;;;;;;33.56;28.58;98602.22;6214435;23;20432;-65